createdAt,value
2018-12-10T00:03:41.829Z,19.27
2018-12-10T00:11:42.333Z,16.47
2018-12-10T00:19:43.352Z,14.37
2018-12-10T00:38:51.422Z,15.77
2018-12-10T00:41:32.045Z,18.80
2018-12-10T00:44:03.147Z,8.93
2018-12-10T00:46:47.316Z,13.50
2018-12-10T00:49:28.999Z,15.10
2018-12-10T00:52:14.456Z,11.10
2018-12-10T00:54:45.978Z,10.83
2018-12-10T00:57:26.424Z,14.60
2018-12-10T01:00:05.076Z,14.90
2018-12-10T01:05:23.346Z,13.60
2018-12-10T01:16:26.727Z,15.63
2018-12-10T01:19:12.467Z,15.93
2018-12-10T01:21:56.654Z,11.63
2018-12-10T01:24:32.092Z,13.37
2018-12-10T01:27:11.371Z,19.83
2018-12-10T01:37:57.113Z,14.10
2018-12-10T01:43:16.256Z,16.10
2018-12-10T01:59:40.214Z,11.40
2018-12-10T02:04:57.424Z,13.60
2018-12-10T02:10:30.098Z,14.10
2018-12-10T02:15:54.170Z,13.97
2018-12-10T02:21:25.593Z,16.77
2018-12-10T02:24:08.470Z,14.53
2018-12-10T02:26:49.078Z,10.43
2018-12-10T02:29:28.723Z,13.27
2018-12-10T02:40:14.492Z,11.40
2018-12-10T02:45:27.982Z,17.57
2018-12-10T02:50:41.766Z,11.60
2018-12-10T02:53:16.377Z,11.63
2018-12-10T02:55:47.704Z,16.27
2018-12-10T02:58:20.723Z,18.43
2018-12-10T03:00:53.129Z,11.33
2018-12-10T03:03:26.460Z,17.50
2018-12-10T03:05:57.745Z,15.93
2018-12-10T03:08:35.255Z,13.93
2018-12-10T03:11:09.269Z,15.93
2018-12-10T03:13:44.581Z,13.67
2018-12-10T03:16:15.716Z,19.40
2018-12-10T03:18:51.250Z,17.53
2018-12-10T03:21:22.869Z,19.67
2018-12-10T03:23:55.089Z,20.77
2018-12-10T03:26:29.035Z,9.37
2018-12-10T03:31:36.579Z,14.77
2018-12-10T03:34:10.333Z,10.53
2018-12-10T03:36:44.050Z,14.13
2018-12-10T03:39:20.694Z,9.20
2018-12-10T03:41:59.824Z,8.20
2018-12-10T03:47:16.677Z,13.10
2018-12-10T03:52:39.483Z,13.90
2018-12-10T03:55:15.632Z,15.13
2018-12-10T03:57:51.768Z,7.83
2018-12-10T04:00:38.783Z,8.07
2018-12-10T04:03:09.549Z,8.33
2018-12-10T04:05:48.239Z,17.50
2018-12-10T04:08:27.936Z,16.77
2018-12-10T04:13:52.296Z,12.07
2018-12-10T04:16:28.801Z,12.43
2018-12-10T04:19:04.757Z,11.53
2018-12-10T04:21:41.026Z,15.57
2018-12-10T04:24:17.221Z,16.83
2018-12-10T04:26:48.271Z,16.03
2018-12-10T04:29:21.569Z,17.40
2018-12-10T04:31:57.582Z,17.47
2018-12-10T04:34:28.364Z,16.30
2018-12-10T04:36:59.828Z,12.67
2018-12-10T04:39:34.345Z,11.03
2018-12-10T04:42:09.609Z,15.57
2018-12-10T04:49:57.905Z,18.50
2018-12-10T04:52:34.271Z,19.47
2018-12-10T04:55:10.888Z,16.77
2018-12-10T04:57:48.970Z,15.03
2018-12-10T05:02:57.021Z,17.03
2018-12-10T05:05:34.380Z,18.93
2018-12-10T05:08:18.847Z,18.47
2018-12-10T05:10:51.847Z,22.90
2018-12-10T05:13:23.867Z,19.13
2018-12-10T05:16:09.260Z,14.20
2018-12-10T05:21:20.765Z,17.03
2018-12-10T05:26:39.908Z,13.40
2018-12-10T05:32:02.084Z,16.77
2018-12-10T05:34:45.720Z,15.73
2018-12-10T05:37:20.083Z,14.90
2018-12-10T05:39:59.130Z,17.07
2018-12-10T05:42:33.434Z,17.43
2018-12-10T05:47:42.220Z,16.40
2018-12-10T05:50:21.577Z,16.93
2018-12-10T05:53:00.997Z,17.93
2018-12-10T05:55:34.768Z,15.83
2018-12-10T05:58:05.417Z,13.67
2018-12-10T06:05:56.712Z,18.23
2018-12-10T06:08:29.667Z,12.33
2018-12-10T06:11:01.940Z,13.93
2018-12-10T06:13:44.780Z,12.17
2018-12-10T06:16:17.293Z,12.53
2018-12-10T06:18:49.547Z,16.23
2018-12-10T06:21:28.994Z,14.17
2018-12-10T06:24:10.647Z,15.43
2018-12-10T06:29:19.940Z,11.33
2018-12-10T06:31:56.398Z,13.77
2018-12-10T06:34:28.247Z,15.70
2018-12-10T06:37:00.404Z,13.90
2018-12-10T06:39:30.911Z,13.57
2018-12-10T06:42:03.019Z,13.10
2018-12-10T06:44:33.974Z,20.10
2018-12-10T06:47:08.213Z,10.93
2018-12-10T06:49:39.993Z,15.67
2018-12-10T06:52:14.286Z,17.30
2018-12-10T06:54:46.839Z,17.50
2018-12-10T07:00:17.624Z,16.20
2018-12-10T07:02:50.986Z,14.93
2018-12-10T07:05:22.757Z,17.53
2018-12-10T07:07:55.522Z,14.53
2018-12-10T07:10:34.308Z,20.17
2018-12-10T07:15:49.014Z,18.57
2018-12-10T07:18:27.492Z,16.60
2018-12-10T07:21:10.376Z,12.07
2018-12-10T07:23:50.544Z,13.40
2018-12-10T07:34:12.481Z,23.90
2018-12-10T07:36:42.073Z,12.00
2018-12-10T07:39:11.702Z,13.97
2018-12-10T07:41:42.504Z,15.27
2018-12-10T07:44:17.273Z,11.20
2018-12-10T07:46:48.649Z,8.73
2018-12-10T07:49:25.080Z,18.57
2018-12-10T07:54:45.349Z,14.00
2018-12-10T07:57:17.587Z,13.67
2018-12-10T07:59:51.092Z,10.63
2018-12-10T08:02:29.681Z,16.83
2018-12-10T08:07:38.054Z,17.23
2018-12-10T08:10:09.360Z,16.67
2018-12-10T08:12:39.684Z,20.03
2018-12-10T08:15:09.960Z,14.27
2018-12-10T08:17:41.645Z,14.47
2018-12-10T08:20:13.603Z,16.43
2018-12-10T08:22:49.167Z,15.70
2018-12-10T08:25:30.679Z,16.63
2018-12-10T08:28:11.330Z,16.50
2018-12-10T08:30:42.407Z,16.53
2018-12-10T08:33:13.358Z,15.57
2018-12-10T08:35:43.869Z,16.20
2018-12-10T08:38:16.012Z,16.13
2018-12-10T08:40:47.840Z,16.90
2018-12-10T08:43:20.456Z,18.30
2018-12-10T08:45:59.376Z,15.30
2018-12-10T08:48:35.154Z,9.07
2018-12-10T08:51:06.323Z,19.77
2018-12-10T08:53:37.721Z,20.40
2018-12-10T08:56:07.877Z,9.90
2018-12-10T08:58:39.358Z,17.30
2018-12-10T09:01:19.793Z,18.30
2018-12-10T09:03:54.894Z,16.77
2018-12-10T09:06:26.785Z,17.87
2018-12-10T09:08:58.685Z,27.77
2018-12-10T09:11:38.637Z,16.10
2018-12-10T09:14:10.885Z,14.97
2018-12-10T09:16:42.197Z,22.20
2018-12-10T09:19:14.066Z,15.27
2018-12-10T09:21:46.344Z,16.10
2018-12-10T09:24:29.239Z,20.37
2018-12-10T09:27:05.266Z,20.63
2018-12-10T09:29:36.193Z,13.27
2018-12-10T09:36:08.622Z,13.97
2018-12-10T09:38:56.101Z,14.50
2018-12-10T09:41:38.358Z,14.57
2018-12-10T09:44:15.944Z,9.67
2018-12-10T09:52:45.615Z,17.57
2018-12-10T09:55:22.925Z,12.97
2018-12-10T10:03:14.566Z,20.00
2018-12-10T10:11:20.512Z,14.40
2018-12-10T10:14:02.150Z,14.07
2018-12-10T10:19:35.110Z,21.37
2018-12-10T10:31:22.129Z,13.07
2018-12-10T11:10:30.164Z,13.90
2018-12-10T11:13:03.823Z,13.87
2018-12-10T11:15:41.883Z,14.27
2018-12-10T11:18:25.581Z,13.67
2018-12-10T11:21:09.184Z,13.87
2018-12-10T11:23:41.323Z,15.57
2018-12-10T11:26:11.786Z,20.37
2018-12-10T11:28:54.091Z,13.93
2018-12-10T11:31:27.861Z,14.00
2018-12-10T11:34:11.655Z,15.47
2018-12-10T11:39:46.456Z,16.37
2018-12-10T11:53:24.080Z,15.37
2018-12-10T11:56:01.120Z,11.37
2018-12-10T11:58:37.006Z,14.30
2018-12-10T12:01:09.167Z,10.90
2018-12-10T12:03:43.294Z,13.27
2018-12-10T12:06:14.705Z,14.73
2018-12-10T12:09:10.243Z,13.00
2018-12-10T12:12:07.070Z,12.47
2018-12-10T12:14:56.227Z,13.03
2018-12-10T12:17:36.062Z,11.60
2018-12-10T12:20:15.942Z,9.57
2018-12-10T12:26:28.519Z,12.67
2018-12-10T12:29:17.528Z,7.57
2018-12-10T12:31:52.636Z,11.57
2018-12-10T12:34:26.293Z,15.07
2018-12-10T12:36:58.031Z,11.20
2018-12-10T12:39:33.003Z,14.87
2018-12-10T12:50:25.660Z,13.10
2018-12-10T12:53:09.446Z,8.77
2018-12-10T12:55:53.437Z,12.83
2018-12-10T12:58:31.548Z,9.77
2018-12-10T13:10:25.243Z,13.97
2018-12-10T13:13:01.961Z,13.17
2018-12-10T13:18:31.271Z,9.63
2018-12-10T13:21:11.442Z,14.53
2018-12-10T13:23:50.059Z,13.67
2018-12-10T13:26:29.950Z,14.93
2018-12-10T13:29:07.716Z,7.53
2018-12-10T13:34:21.575Z,10.13
2018-12-10T13:36:56.972Z,8.13
2018-12-10T13:39:37.907Z,10.80
2018-12-10T13:42:15.735Z,9.03
2018-12-10T13:47:41.261Z,9.67
2018-12-10T13:50:36.946Z,14.13
2018-12-10T13:53:16.706Z,7.87
2018-12-10T13:58:34.160Z,7.23
2018-12-10T14:01:09.540Z,9.33
2018-12-10T14:03:42.475Z,8.70
2018-12-10T14:06:21.181Z,9.40
2018-12-10T14:08:52.137Z,7.63
2018-12-10T14:11:23.898Z,14.93
2018-12-10T14:13:55.336Z,17.93
2018-12-10T14:16:30.059Z,13.17
2018-12-10T14:21:47.638Z,9.80
2018-12-10T14:24:23.336Z,14.17
2018-12-10T14:29:55.780Z,15.50
2018-12-10T14:35:11.685Z,11.50
2018-12-10T14:37:48.211Z,13.70
2018-12-10T14:40:25.652Z,9.90
2018-12-10T14:43:00.824Z,14.60
2018-12-10T14:45:38.286Z,7.10
2018-12-10T14:48:11.374Z,7.83
2018-12-10T14:50:44.773Z,10.83
2018-12-10T14:53:17.456Z,14.30
2018-12-10T14:55:53.774Z,17.87
2018-12-10T15:01:09.489Z,12.67
2018-12-10T15:03:45.445Z,15.43
2018-12-10T15:06:32.640Z,11.77
2018-12-10T15:09:09.126Z,10.00
2018-12-10T15:11:48.468Z,11.47
2018-12-10T15:17:12.921Z,10.10
2018-12-10T15:22:50.783Z,9.53
2018-12-10T15:25:22.312Z,11.53
2018-12-10T15:27:57.568Z,10.97
2018-12-10T15:30:28.844Z,8.67
2018-12-10T15:35:39.068Z,8.10
2018-12-10T15:41:01.717Z,7.90
2018-12-10T15:46:21.977Z,13.87
2018-12-10T15:57:21.849Z,19.27
2018-12-10T16:00:03.362Z,13.70
2018-12-10T16:05:27.391Z,15.23
2018-12-10T16:25:05.115Z,13.93
2018-12-10T16:27:43.441Z,14.37
2018-12-10T16:35:56.917Z,14.63
2018-12-10T16:38:38.404Z,12.50
2018-12-10T16:46:40.666Z,17.47
2018-12-10T16:49:23.167Z,14.23
2018-12-10T17:02:59.304Z,13.77
2018-12-10T17:20:45.559Z,10.10
2018-12-10T17:31:31.116Z,13.27
2018-12-10T17:34:09.443Z,9.80
2018-12-10T17:39:52.533Z,16.13
2018-12-10T17:45:33.298Z,9.90
2018-12-10T17:48:04.403Z,13.40
2018-12-10T17:59:43.773Z,14.30
2018-12-10T18:11:06.753Z,18.33
2018-12-10T18:16:28.382Z,24.07
2018-12-10T18:24:37.469Z,28.83
2018-12-10T18:27:17.153Z,32.13
2018-12-10T18:29:53.115Z,31.67
2018-12-10T18:33:00.394Z,28.70
2018-12-10T18:39:08.353Z,27.87
2018-12-10T18:56:22.088Z,25.23
2018-12-10T19:04:24.787Z,33.10
2018-12-10T19:10:03.962Z,23.83
2018-12-10T19:12:44.047Z,29.20
2018-12-10T19:15:19.838Z,31.10
2018-12-10T19:17:52.100Z,30.37
2018-12-10T19:20:26.141Z,26.63
2018-12-10T19:23:01.321Z,21.93
2018-12-10T19:28:16.777Z,25.50
2018-12-10T19:30:50.432Z,23.90
2018-12-10T19:33:36.207Z,29.20
2018-12-10T19:36:08.820Z,31.87
2018-12-10T19:38:41.030Z,26.67
2018-12-10T19:41:17.229Z,24.13
2018-12-10T19:43:49.515Z,21.80
2018-12-10T19:46:24.791Z,17.90
2018-12-10T19:49:14.865Z,23.63
2018-12-10T19:58:45.951Z,19.90
2018-12-10T20:04:23.484Z,16.63
2018-12-10T20:07:12.658Z,21.13
